Wetterdaten: Woche 04.09.17 - 10.09.17 (KW36)
Datum Zeit Temp. I. Temp. A. Feuchte I. Feuchte A. Luftdruck Regen Wind Richtung Sonnenschein UV Solar Taupunkt Windchill Windben
04.09.2017 00:00 23,3 C 7,0 C 63 % 91 % 1016,2 hPa 0,0 l/m 0,0 km/h (0 Bft) N 0,00 h 0,0 UV-I 0 W/m 5,6 C 7,0 C 0,0 km/h (0 Bft)
04.09.2017 01:00 23,2 C 6,2 C 65 % 92 % 1016,3 hPa 0,0 l/m 0,0 km/h (0 Bft) N 0,00 h 0,0 UV-I 0 W/m 5,0 C 6,2 C 0,0 km/h (0 Bft)
04.09.2017 02:00 23,1 C 5,7 C 66 % 93 % 1016,2 hPa 0,0 l/m 0,0 km/h (0 Bft) N 0,00 h 0,0 UV-I 0 W/m 4,6 C 5,7 C 0,0 km/h (0 Bft)
04.09.2017 03:00 22,1 C 5,2 C 63 % 94 % 1016,2 hPa 0,0 l/m 0,0 km/h (0 Bft) N 0,00 h 0,0 UV-I 0 W/m 4,3 C 5,2 C 0,0 km/h (0 Bft)
04.09.2017 04:00 21,2 C 4,7 C 63 % 94 % 1016,1 hPa 0,0 l/m 0,0 km/h (0 Bft) N 0,00 h 0,0 UV-I 0 W/m 3,8 C 4,7 C 0,0 km/h (0 Bft)
04.09.2017 05:00 21,1 C 4,1 C 63 % 93 % 1016,1 hPa 0,0 l/m 0,0 km/h (0 Bft) N 0,00 h 0,0 UV-I 0 W/m 3,1 C 4,1 C 0,0 km/h (0 Bft)
04.09.2017 06:00 21,0 C 3,6 C 62 % 94 % 1016,4 hPa 0,0 l/m 0,0 km/h (0 Bft) N 0,00 h 0,0 UV-I 9 W/m 2,8 C 3,6 C 0,0 km/h (0 Bft)
04.09.2017 07:00 20,9 C 3,5 C 61 % 94 % 1016,6 hPa 0,0 l/m 0,0 km/h (0 Bft) N 0,00 h 0,0 UV-I 29 W/m 2,7 C 3,5 C 0,0 km/h (0 Bft)
04.09.2017 08:00 20,9 C 6,0 C 61 % 96 % 1016,8 hPa 0,0 l/m 0,0 km/h (0 Bft) N 0,95 h 0,7 UV-I 254 W/m 5,5 C 6,0 C 0,0 km/h (0 Bft)
04.09.2017 09:00 21,4 C 11,2 C 61 % 92 % 1017,1 hPa 0,0 l/m 0,0 km/h (0 Bft) N 1,00 h 1,5 UV-I 439 W/m 9,8 C 11,2 C 0,0 km/h (0 Bft)
04.09.2017 10:00 20,7 C 15,4 C 57 % 78 % 1017,4 hPa 0,0 l/m 0,5 km/h (0 Bft) S 1,00 h 2,5 UV-I 580 W/m 11,6 C 15,4 C 1,2 km/h (1 Bft)
04.09.2017 11:00 22,1 C 17,5 C 54 % 64 % 1017,4 hPa 0,0 l/m 2,1 km/h (1 Bft) W-SW 1,00 h 3,5 UV-I 680 W/m 10,7 C 17,5 C 6,2 km/h (2 Bft)
04.09.2017 12:00 22,4 C 18,2 C 49 % 56 % 1017,4 hPa 0,0 l/m 2,3 km/h (1 Bft) W-SW 1,00 h 4,2 UV-I 732 W/m 9,3 C 18,1 C 6,1 km/h (2 Bft)
04.09.2017 13:00 22,7 C 19,2 C 49 % 56 % 1017,4 hPa 0,0 l/m 3,9 km/h (1 Bft) S 1,00 h 4,4 UV-I 770 W/m 10,1 C 19,0 C 8,9 km/h (2 Bft)
04.09.2017 14:00 22,6 C 19,6 C 45 % 49 % 1017,2 hPa 0,0 l/m 4,3 km/h (1 Bft) W-SW 1,00 h 3,9 UV-I 719 W/m 8,7 C 19,4 C 9,4 km/h (2 Bft)
04.09.2017 15:00 22,6 C 19,8 C 44 % 47 % 1017,1 hPa 0,0 l/m 4,8 km/h (1 Bft) W-SW 0,95 h 2,7 UV-I 549 W/m 8,2 C 19,5 C 10,2 km/h (2 Bft)
04.09.2017 16:00 22,0 C 18,4 C 45 % 53 % 1017,1 hPa 0,0 l/m 0,7 km/h (0 Bft) W-SW 0,20 h 1,3 UV-I 142 W/m 8,7 C 18,4 C 2,4 km/h (1 Bft)
04.09.2017 17:00 21,7 C 18,9 C 45 % 52 % 1017,1 hPa 0,0 l/m 3,8 km/h (1 Bft) W-SW 1,00 h 1,0 UV-I 320 W/m 8,7 C 18,8 C 8,8 km/h (2 Bft)
04.09.2017 18:00 22,4 C 18,6 C 49 % 52 % 1017,4 hPa 0,0 l/m 3,1 km/h (1 Bft) W-SW 0,33 h 0,6 UV-I 104 W/m 8,4 C 18,5 C 7,2 km/h (2 Bft)
04.09.2017 19:00 23,0 C 16,9 C 50 % 58 % 1017,8 hPa 0,0 l/m 0,5 km/h (0 Bft) W 0,00 h 0,0 UV-I 17 W/m 8,6 C 16,9 C 1,5 km/h (1 Bft)
04.09.2017 20:00 23,1 C 14,9 C 50 % 68 % 1018,5 hPa 0,0 l/m 0,0 km/h (0 Bft) N 0,00 h 0,0 UV-I 0 W/m 9,0 C 14,9 C 0,0 km/h (0 Bft)
04.09.2017 21:00 23,1 C 12,3 C 51 % 79 % 1019,1 hPa 0,0 l/m 0,0 km/h (0 Bft) N 0,00 h 0,0 UV-I 0 W/m 8,8 C 12,3 C 0,0 km/h (0 Bft)
04.09.2017 22:00 23,2 C 10,9 C 52 % 86 % 1019,4 hPa 0,0 l/m 0,0 km/h (0 Bft) N 0,00 h 0,0 UV-I 0 W/m 8,5 C 10,9 C 0,0 km/h (0 Bft)
04.09.2017 23:00 23,2 C 9,9 C 54 % 87 % 1019,8 hPa 0,0 l/m 0,0 km/h (0 Bft) N 0,00 h 0,0 UV-I 0 W/m 7,9 C 9,9 C 0,0 km/h (0 Bft)
05.09.2017 00:00 23,1 C 8,8 C 56 % 90 % 1019,8 hPa 0,0 l/m 0,1 km/h (0 Bft) S-SW 0,00 h 0,0 UV-I 0 W/m 7,2 C 8,8 C 0,4 km/h (0 Bft)
05.09.2017 01:00 22,6 C 7,9 C 57 % 91 % 1020,2 hPa 0,0 l/m 0,0 km/h (0 Bft) N 0,00 h 0,0 UV-I 0 W/m 6,5 C 7,9 C 0,0 km/h (0 Bft)
05.09.2017 02:00 23,0 C 7,1 C 58 % 91 % 1020,3 hPa 0,0 l/m 0,0 km/h (0 Bft) N 0,00 h 0,0 UV-I 0 W/m 5,8 C 7,1 C 0,0 km/h (0 Bft)
05.09.2017 03:00 22,9 C 6,6 C 59 % 92 % 1020,1 hPa 0,0 l/m 0,0 km/h (0 Bft) N 0,00 h 0,0 UV-I 0 W/m 5,4 C 6,6 C 0,0 km/h (0 Bft)
05.09.2017 04:00 22,7 C 6,1 C 58 % 92 % 1019,9 hPa 0,0 l/m 0,0 km/h (0 Bft) N 0,00 h 0,0 UV-I 0 W/m 4,9 C 6,1 C 0,0 km/h (0 Bft)
05.09.2017 05:00 22,6 C 5,5 C 59 % 92 % 1019,8 hPa 0,0 l/m 0,0 km/h (0 Bft) N 0,00 h 0,0 UV-I 0 W/m 4,3 C 5,5 C 0,0 km/h (0 Bft)
05.09.2017 06:00 22,6 C 4,9 C 59 % 93 % 1020,2 hPa 0,0 l/m 0,0 km/h (0 Bft) N 0,00 h 0,0 UV-I 9 W/m 3,8 C 4,9 C 0,0 km/h (0 Bft)
05.09.2017 07:00 22,5 C 4,7 C 58 % 93 % 1020,6 hPa 0,0 l/m 0,0 km/h (0 Bft) N 0,00 h 0,0 UV-I 27 W/m 3,8 C 4,7 C 0,0 km/h (0 Bft)
05.09.2017 08:00 22,6 C 7,6 C 57 % 96 % 1020,7 hPa 0,0 l/m 0,0 km/h (0 Bft) N 0,95 h 0,7 UV-I 254 W/m 7,1 C 7,6 C 0,0 km/h (0 Bft)
05.09.2017 09:00 22,3 C 13,3 C 56 % 87 % 1020,6 hPa 0,0 l/m 0,0 km/h (0 Bft) N 1,00 h 1,6 UV-I 433 W/m 11,2 C 13,3 C 0,0 km/h (0 Bft)
05.09.2017 10:00 21,3 C 17,4 C 55 % 72 % 1020,5 hPa 0,0 l/m 0,8 km/h (0 Bft) S-SW 1,00 h 2,7 UV-I 575 W/m 12,3 C 17,4 C 2,0 km/h (1 Bft)
05.09.2017 11:00 22,4 C 19,6 C 53 % 62 % 1020,1 hPa 0,0 l/m 3,5 km/h (1 Bft) W 1,00 h 3,8 UV-I 683 W/m 12,0 C 19,5 C 7,8 km/h (2 Bft)
05.09.2017 12:00 22,6 C 19,3 C 51 % 60 % 1019,9 hPa 0,0 l/m 4,1 km/h (1 Bft) W-SW 0,87 h 3,7 UV-I 483 W/m 11,4 C 19,1 C 9,2 km/h (2 Bft)
05.09.2017 13:00 22,6 C 20,1 C 52 % 59 % 1019,5 hPa 0,0 l/m 3,7 km/h (1 Bft) W-SW 0,93 h 4,3 UV-I 590 W/m 11,8 C 20,0 C 8,7 km/h (2 Bft)
05.09.2017 14:00 22,9 C 20,4 C 52 % 60 % 1019,0 hPa 0,0 l/m 3,3 km/h (1 Bft) SW 0,87 h 3,3 UV-I 463 W/m 12,4 C 20,4 C 8,5 km/h (2 Bft)
05.09.2017 15:00 23,0 C 20,0 C 53 % 63 % 1018,7 hPa 0,0 l/m 3,6 km/h (1 Bft) W-SW 1,00 h 2,0 UV-I 254 W/m 12,7 C 19,9 C 8,2 km/h (2 Bft)
05.09.2017 16:00 22,8 C 19,6 C 54 % 65 % 1018,7 hPa 0,0 l/m 3,8 km/h (1 Bft) W-SW 0,52 h 1,1 UV-I 162 W/m 12,9 C 19,5 C 9,3 km/h (2 Bft)
05.09.2017 17:00 22,6 C 19,1 C 55 % 69 % 1018,6 hPa 0,0 l/m 1,4 km/h (1 Bft) W-SW 0,00 h 0,6 UV-I 97 W/m 13,2 C 19,1 C 4,3 km/h (1 Bft)
05.09.2017 18:00 22,3 C 18,8 C 57 % 72 % 1018,5 hPa 0,0 l/m 0,3 km/h (0 Bft) W 0,00 h 0,0 UV-I 46 W/m 13,5 C 18,8 C 1,4 km/h (1 Bft)
05.09.2017 19:00 22,5 C 18,2 C 59 % 75 % 1018,3 hPa 0,0 l/m 0,0 km/h (0 Bft) N 0,00 h 0,0 UV-I 19 W/m 13,7 C 18,2 C 0,0 km/h (0 Bft)
05.09.2017 20:00 23,2 C 17,1 C 58 % 79 % 1018,5 hPa 0,0 l/m 0,0 km/h (0 Bft) N 0,00 h 0,0 UV-I 0 W/m 13,4 C 17,1 C 0,0 km/h (0 Bft)
05.09.2017 21:00 23,2 C 15,9 C 58 % 84 % 1018,6 hPa 0,0 l/m 0,0 km/h (0 Bft) N 0,00 h 0,0 UV-I 0 W/m 13,1 C 15,9 C 0,0 km/h (0 Bft)
05.09.2017 22:00 23,4 C 14,6 C 59 % 87 % 1018,7 hPa 0,0 l/m 0,0 km/h (0 Bft) N 0,00 h 0,0 UV-I 0 W/m 12,4 C 14,6 C 0,0 km/h (0 Bft)
05.09.2017 23:00 23,4 C 13,7 C 61 % 90 % 1018,4 hPa 0,0 l/m 0,0 km/h (0 Bft) N 0,00 h 0,0 UV-I 0 W/m 12,0 C 13,7 C 0,0 km/h (0 Bft)
06.09.2017 00:00 23,4 C 13,3 C 61 % 91 % 1018,0 hPa 0,0 l/m 0,0 km/h (0 Bft) N 0,00 h 0,0 UV-I 0 W/m 11,8 C 13,3 C 0,0 km/h (0 Bft)
06.09.2017 01:00 23,4 C 12,8 C 61 % 92 % 1017,6 hPa 0,0 l/m 0,0 km/h (0 Bft) N 0,00 h 0,0 UV-I 0 W/m 11,6 C 12,8 C 0,0 km/h (0 Bft)
06.09.2017 02:00 23,4 C 12,4 C 62 % 93 % 1017,0 hPa 0,0 l/m 0,0 km/h (0 Bft) N 0,00 h 0,0 UV-I 0 W/m 11,3 C 12,4 C 0,0 km/h (0 Bft)
06.09.2017 03:00 23,4 C 12,5 C 62 % 93 % 1016,4 hPa 0,0 l/m 0,0 km/h (0 Bft) N 0,00 h 0,0 UV-I 0 W/m 11,4 C 12,5 C 0,0 km/h (0 Bft)
06.09.2017 04:00 23,3 C 12,8 C 62 % 94 % 1015,9 hPa 0,0 l/m 0,0 km/h (0 Bft) N 0,00 h 0,0 UV-I 0 W/m 11,9 C 12,8 C 0,0 km/h (0 Bft)
06.09.2017 05:00 23,2 C 13,1 C 62 % 95 % 1015,6 hPa 0,0 l/m 0,0 km/h (0 Bft) N 0,00 h 0,0 UV-I 0 W/m 12,3 C 13,1 C 0,0 km/h (0 Bft)
06.09.2017 06:00 23,1 C 14,2 C 61 % 95 % 1015,2 hPa 0,2 l/m 0,1 km/h (0 Bft) SO 0,00 h 0,0 UV-I 0 W/m 13,4 C 14,2 C 0,6 km/h (0 Bft)
06.09.2017 07:00 23,2 C 14,8 C 61 % 96 % 1015,1 hPa 0,2 l/m 0,1 km/h (0 Bft) S 0,00 h 0,0 UV-I 19 W/m 14,1 C 14,8 C 0,5 km/h (0 Bft)
06.09.2017 08:00 22,8 C 15,6 C 62 % 96 % 1014,9 hPa 0,0 l/m 1,7 km/h (1 Bft) S-SW 0,27 h 0,7 UV-I 137 W/m 15,0 C 15,6 C 5,5 km/h (1 Bft)
06.09.2017 09:00 21,8 C 16,9 C 66 % 93 % 1014,7 hPa 0,0 l/m 4,6 km/h (1 Bft) SW 0,70 h 1,1 UV-I 221 W/m 15,8 C 16,7 C 10,0 km/h (2 Bft)
06.09.2017 10:00 22,0 C 17,9 C 66 % 87 % 1014,3 hPa 0,0 l/m 4,8 km/h (1 Bft) W-SW 0,75 h 1,4 UV-I 216 W/m 15,7 C 17,6 C 11,9 km/h (2 Bft)
06.09.2017 11:00 22,2 C 18,5 C 64 % 84 % 1013,8 hPa 0,0 l/m 5,9 km/h (2 Bft) W-SW 0,68 h 2,1 UV-I 330 W/m 15,6 C 17,8 C 12,7 km/h (3 Bft)
06.09.2017 12:00 22,5 C 19,0 C 61 % 76 % 1013,3 hPa 0,0 l/m 8,1 km/h (2 Bft) W-SW 0,43 h 1,4 UV-I 169 W/m 14,8 C 18,1 C 16,5 km/h (3 Bft)
06.09.2017 13:00 22,4 C 18,9 C 62 % 77 % 1013,1 hPa 0,0 l/m 7,8 km/h (2 Bft) W-SW 0,95 h 3,1 UV-I 376 W/m 14,7 C 18,1 C 15,9 km/h (3 Bft)
06.09.2017 14:00 22,6 C 19,0 C 61 % 76 % 1012,9 hPa 0,0 l/m 6,5 km/h (2 Bft) W-SW 0,42 h 1,6 UV-I 158 W/m 14,7 C 18,4 C 14,7 km/h (3 Bft)
06.09.2017 15:00 22,5 C 17,7 C 61 % 81 % 1012,9 hPa 0,2 l/m 6,1 km/h (2 Bft) W-SW 0,95 h 1,6 UV-I 228 W/m 14,4 C 17,1 C 13,8 km/h (3 Bft)
06.09.2017 16:00 22,7 C 19,8 C 59 % 69 % 1012,3 hPa 0,0 l/m 9,2 km/h (2 Bft) W-SW 0,97 h 2,0 UV-I 454 W/m 14,0 C 18,7 C 19,4 km/h (3 Bft)
06.09.2017 17:00 22,6 C 19,9 C 58 % 66 % 1012,2 hPa 0,0 l/m 12,5 km/h (3 Bft) W 0,72 h 1,0 UV-I 254 W/m 13,4 C 17,9 C 23,7 km/h (4 Bft)
06.09.2017 18:00 21,9 C 18,4 C 57 % 68 % 1012,7 hPa 0,0 l/m 9,1 km/h (2 Bft) W-NW 0,23 h 0,6 UV-I 98 W/m 12,4 C 17,1 C 18,4 km/h (3 Bft)
06.09.2017 19:00 22,5 C 16,4 C 59 % 69 % 1013,7 hPa 0,0 l/m 11,1 km/h (2 Bft) W 0,00 h 0,0 UV-I 19 W/m 10,8 C 14,3 C 19,0 km/h (3 Bft)
06.09.2017 20:00 22,9 C 15,1 C 59 % 67 % 1014,7 hPa 0,0 l/m 10,9 km/h (2 Bft) W-NW 0,00 h 0,0 UV-I 0 W/m 9,0 C 12,9 C 18,0 km/h (3 Bft)
06.09.2017 21:00 22,8 C 14,5 C 60 % 65 % 1015,1 hPa 0,0 l/m 5,2 km/h (1 Bft) W 0,00 h 0,0 UV-I 0 W/m 7,9 C 14,0 C 10,7 km/h (2 Bft)
06.09.2017 22:00 23,0 C 13,7 C 61 % 67 % 1015,0 hPa 0,0 l/m 5,6 km/h (1 Bft) W 0,00 h 0,0 UV-I 0 W/m 7,7 C 13,1 C 12,1 km/h (2 Bft)
06.09.2017 23:00 23,2 C 13,0 C 61 % 71 % 1015,2 hPa 0,0 l/m 5,6 km/h (1 Bft) W 0,00 h 0,0 UV-I 0 W/m 7,8 C 12,6 C 11,8 km/h (2 Bft)
07.09.2017 00:00 23,2 C 12,8 C 63 % 73 % 1015,5 hPa 0,0 l/m 4,1 km/h (1 Bft) W-SW 0,00 h 0,0 UV-I 0 W/m 8,2 C 12,7 C 9,6 km/h (2 Bft)
07.09.2017 01:00 23,3 C 12,6 C 63 % 77 % 1015,8 hPa 0,0 l/m 4,5 km/h (1 Bft) W-SW 0,00 h 0,0 UV-I 0 W/m 8,6 C 12,3 C 10,5 km/h (2 Bft)
07.09.2017 02:00 23,3 C 12,1 C 64 % 81 % 1015,7 hPa 0,0 l/m 2,8 km/h (1 Bft) W-SW 0,00 h 0,0 UV-I 0 W/m 8,9 C 12,1 C 7,2 km/h (2 Bft)
07.09.2017 03:00 23,2 C 12,0 C 64 % 81 % 1015,4 hPa 0,0 l/m 4,5 km/h (1 Bft) W 0,00 h 0,0 UV-I 0 W/m 8,7 C 11,8 C 10,1 km/h (2 Bft)
07.09.2017 04:00 23,1 C 11,7 C 63 % 81 % 1015,4 hPa 0,0 l/m 2,0 km/h (1 Bft) W-SW 0,00 h 0,0 UV-I 0 W/m 8,6 C 11,7 C 5,6 km/h (1 Bft)
07.09.2017 05:00 23,0 C 10,9 C 63 % 85 % 1015,1 hPa 0,0 l/m 4,1 km/h (1 Bft) W-SW 0,00 h 0,0 UV-I 0 W/m 8,4 C 10,8 C 8,9 km/h (2 Bft)
07.09.2017 06:00 22,9 C 10,6 C 63 % 87 % 1015,0 hPa 0,0 l/m 2,6 km/h (1 Bft) W 0,00 h 0,0 UV-I 7 W/m 8,5 C 10,6 C 6,1 km/h (2 Bft)
07.09.2017 07:00 22,9 C 10,7 C 62 % 88 % 1015,2 hPa 0,0 l/m 3,9 km/h (1 Bft) N 0,00 h 0,0 UV-I 31 W/m 8,8 C 10,6 C 9,2 km/h (2 Bft)
07.09.2017 08:00 21,5 C 11,4 C 57 % 86 % 1015,3 hPa 0,0 l/m 3,1 km/h (1 Bft) N 0,10 h 0,6 UV-I 102 W/m 9,2 C 11,3 C 7,5 km/h (2 Bft)
07.09.2017 09:00 20,1 C 12,2 C 57 % 82 % 1015,5 hPa 0,0 l/m 4,1 km/h (1 Bft) N 0,07 h 0,9 UV-I 134 W/m 9,2 C 11,9 C 10,2 km/h (2 Bft)
07.09.2017 10:00 20,2 C 12,8 C 57 % 79 % 1015,9 hPa 0,0 l/m 3,9 km/h (1 Bft) N 0,78 h 1,2 UV-I 171 W/m 9,4 C 12,5 C 9,9 km/h (2 Bft)
07.09.2017 11:00 20,3 C 13,7 C 56 % 76 % 1015,9 hPa 0,0 l/m 5,3 km/h (1 Bft) N 1,00 h 2,1 UV-I 281 W/m 9,5 C 13,3 C 11,7 km/h (2 Bft)
07.09.2017 12:00 20,7 C 14,4 C 56 % 73 % 1015,7 hPa 0,0 l/m 6,2 km/h (2 Bft) W-SW 1,00 h 2,2 UV-I 277 W/m 9,6 C 13,8 C 13,2 km/h (3 Bft)
07.09.2017 13:00 20,8 C 14,2 C 56 % 75 % 1015,7 hPa 0,0 l/m 6,1 km/h (2 Bft) N 1,00 h 1,9 UV-I 240 W/m 9,8 C 13,7 C 12,6 km/h (3 Bft)
07.09.2017 14:00 20,9 C 15,2 C 57 % 73 % 1015,5 hPa 0,0 l/m 4,5 km/h (1 Bft) W 1,00 h 3,5 UV-I 546 W/m 10,4 C 14,9 C 10,9 km/h (2 Bft)
07.09.2017 15:00 21,2 C 15,7 C 55 % 67 % 1015,2 hPa 0,0 l/m 5,5 km/h (1 Bft) W 0,77 h 1,5 UV-I 222 W/m 9,6 C 15,2 C 12,9 km/h (3 Bft)
07.09.2017 16:00 20,7 C 14,3 C 56 % 74 % 1015,3 hPa 0,0 l/m 1,6 km/h (1 Bft) W-SW 0,58 h 1,2 UV-I 158 W/m 9,7 C 14,2 C 5,0 km/h (1 Bft)
07.09.2017 17:00 20,6 C 14,9 C 56 % 74 % 1015,1 hPa 0,0 l/m 1,5 km/h (1 Bft) W-SW 0,73 h 0,9 UV-I 215 W/m 10,2 C 14,9 C 4,6 km/h (1 Bft)
07.09.2017 18:00 20,4 C 14,7 C 57 % 74 % 1014,9 hPa 0,0 l/m 0,3 km/h (0 Bft) SW 0,00 h 0,5 UV-I 47 W/m 10,0 C 14,7 C 1,3 km/h (1 Bft)
07.09.2017 19:00 21,0 C 13,8 C 61 % 79 % 1014,9 hPa 0,0 l/m 0,0 km/h (0 Bft) N 0,00 h 0,0 UV-I 20 W/m 10,1 C 13,8 C 0,0 km/h (0 Bft)
07.09.2017 20:00 22,5 C 12,5 C 61 % 81 % 1015,3 hPa 0,0 l/m 0,0 km/h (0 Bft) N 0,00 h 0,0 UV-I 0 W/m 9,2 C 12,5 C 0,0 km/h (0 Bft)
07.09.2017 21:00 22,5 C 10,9 C 61 % 85 % 1015,6 hPa 0,0 l/m 0,0 km/h (0 Bft) N 0,00 h 0,0 UV-I 0 W/m 8,5 C 10,9 C 0,0 km/h (0 Bft)
07.09.2017 22:00 22,6 C 9,7 C 62 % 88 % 1015,7 hPa 0,0 l/m 0,0 km/h (0 Bft) N 0,00 h 0,0 UV-I 0 W/m 7,8 C 9,7 C 0,0 km/h (0 Bft)
07.09.2017 23:00 22,9 C 8,7 C 63 % 88 % 1015,7 hPa 0,0 l/m 0,0 km/h (0 Bft) N 0,00 h 0,0 UV-I 0 W/m 6,9 C 8,7 C 0,0 km/h (0 Bft)
08.09.2017 00:00 22,9 C 7,8 C 63 % 90 % 1015,4 hPa 0,0 l/m 0,0 km/h (0 Bft) N 0,00 h 0,0 UV-I 0 W/m 6,2 C 7,8 C 0,0 km/h (0 Bft)
08.09.2017 01:00 23,0 C 7,4 C 63 % 91 % 1015,0 hPa 0,0 l/m 0,0 km/h (0 Bft) N 0,00 h 0,0 UV-I 0 W/m 6,1 C 7,4 C 0,0 km/h (0 Bft)
08.09.2017 02:00 23,0 C 7,1 C 64 % 92 % 1014,6 hPa 0,0 l/m 0,0 km/h (0 Bft) N 0,00 h 0,0 UV-I 0 W/m 5,9 C 7,1 C 0,0 km/h (0 Bft)
08.09.2017 03:00 23,1 C 6,8 C 63 % 93 % 1014,5 hPa 0,0 l/m 0,0 km/h (0 Bft) N 0,00 h 0,0 UV-I 0 W/m 5,8 C 6,8 C 0,0 km/h (0 Bft)
08.09.2017 04:00 23,0 C 7,1 C 63 % 94 % 1014,0 hPa 0,0 l/m 0,0 km/h (0 Bft) N 0,00 h 0,0 UV-I 0 W/m 6,2 C 7,1 C 0,0 km/h (0 Bft)
08.09.2017 05:00 23,1 C 7,5 C 63 % 94 % 1013,6 hPa 0,0 l/m 0,0 km/h (0 Bft) N 0,00 h 0,0 UV-I 0 W/m 6,6 C 7,5 C 0,0 km/h (0 Bft)
08.09.2017 06:00 23,1 C 8,4 C 63 % 95 % 1013,1 hPa 0,0 l/m 0,0 km/h (0 Bft) N 0,00 h 0,0 UV-I 9 W/m 7,6 C 8,4 C 0,0 km/h (0 Bft)
08.09.2017 07:00 23,1 C 9,3 C 63 % 95 % 1013,0 hPa 0,0 l/m 0,0 km/h (0 Bft) N 0,00 h 0,0 UV-I 48 W/m 8,5 C 9,3 C 0,0 km/h (0 Bft)
08.09.2017 08:00 22,9 C 10,6 C 62 % 91 % 1012,7 hPa 0,0 l/m 0,9 km/h (0 Bft) SW 0,70 h 0,6 UV-I 165 W/m 9,2 C 10,6 C 2,4 km/h (1 Bft)
08.09.2017 09:00 23,0 C 11,9 C 63 % 85 % 1012,6 hPa 0,0 l/m 4,6 km/h (1 Bft) S 0,18 h 1,0 UV-I 201 W/m 9,5 C 11,7 C 8,5 km/h (2 Bft)
Min-Datum _ 07.09.17 04.09.17 04.09.17 04.09.17 06.09.17 - 04.09.17 - - - - 04.09.17 04.09.17 04.09.17
_ Min-Zeit 09:36 06:55 15:14 14:55 17:12 - 00:00 - - - - 06:55 06:55 00:00
Minimum _ 20,0 C 3,4 C 42 % 44 % 1011,9 hPa - 0,0 km/h (0 Bft) - - - - 2,5 C 3,4 C 0,0 km/h (0 Bft)
Max-Datum _ 06.09.17 05.09.17 06.09.17 04.09.17 05.09.17 06.09.17 06.09.17 - 08.09.17 05.09.17 07.09.17 06.09.17 05.09.17 06.09.17
_ Max-Zeit 02:20 13:48 08:58 08:23 07:50 06:28 16:48 - 09:10 13:09 14:43 09:54 13:51 16:59
Maximum _ 23,5 C 20,8 C 67 % 97 % 1020,7 hPa 0,2 l/m 27,4 km/h
W-SW (4 Bft)
- 0,07 h 5,1 UV-I 900 W/m 16,2 C 20,8 C 41,8 km/h
W-SW (6 Bft)
Durchschnitt _ 22,4 C 13,0 C 59 % 80 % 1016,4 hPa #0,6 l/m 2,3 km/h (1 Bft) W-SW #35:33 h 1,9 UV-I 254 W/m 9,5 C 12,8 C 5,0 km/h (1 Bft)